createdAt,value
2022-10-24T00:00:17.992Z,100.00
2022-10-24T00:05:19.038Z,100.00
2022-10-24T00:10:20.320Z,100.00
2022-10-24T00:15:21.262Z,100.00
2022-10-24T00:20:22.157Z,100.00
2022-10-24T00:25:22.948Z,100.00
2022-10-24T00:30:23.935Z,100.00
2022-10-24T00:35:24.707Z,100.00
2022-10-24T00:40:25.543Z,100.00
2022-10-24T00:46:27.020Z,100.00
2022-10-24T00:51:33.085Z,100.00
2022-10-24T00:56:36.906Z,100.00
2022-10-24T01:01:38.226Z,100.00
2022-10-24T01:10:27.019Z,100.00
2022-10-24T01:15:46.555Z,100.00
2022-10-24T01:21:16.280Z,100.00
2022-10-24T01:28:02.919Z,100.00
2022-10-24T01:33:17.084Z,100.00
2022-10-24T01:38:31.240Z,100.00
2022-10-24T01:43:41.413Z,100.00
2022-10-24T01:48:48.503Z,100.00
2022-10-24T01:53:50.582Z,100.00
2022-10-24T01:58:51.372Z,100.00
2022-10-24T02:04:05.282Z,100.00
2022-10-24T02:09:15.864Z,100.00
2022-10-24T02:14:34.218Z,100.00
2022-10-24T02:19:35.902Z,100.00
2022-10-24T02:24:49.870Z,100.00
2022-10-24T02:30:01.250Z,100.00
2022-10-24T02:35:04.849Z,100.00
2022-10-24T02:40:08.919Z,100.00
2022-10-24T02:45:12.409Z,100.00
2022-10-24T02:50:13.524Z,100.00
2022-10-24T02:55:14.429Z,100.00
2022-10-24T03:00:17.838Z,100.00
2022-10-24T03:05:18.594Z,100.00
2022-10-24T03:10:19.730Z,100.00
2022-10-24T03:15:20.509Z,100.00
2022-10-24T03:20:21.367Z,100.00
2022-10-24T03:25:22.094Z,100.00
2022-10-24T03:30:23.256Z,100.00
2022-10-24T03:35:24.091Z,100.00
2022-10-24T03:40:25.129Z,100.00
2022-10-24T03:45:25.943Z,100.00
2022-10-24T03:50:26.795Z,100.00
2022-10-24T03:55:28.298Z,100.00
2022-10-24T04:00:29.318Z,100.00
2022-10-24T04:05:30.188Z,100.00
2022-10-24T04:10:31.155Z,100.00
2022-10-24T04:15:31.926Z,100.00
2022-10-24T04:20:33.012Z,100.00
2022-10-24T04:25:33.776Z,100.00
2022-10-24T04:30:34.795Z,100.00
2022-10-24T04:35:35.644Z,100.00
2022-10-24T04:40:36.680Z,100.00
2022-10-24T04:45:37.402Z,100.00
2022-10-24T04:50:39.637Z,100.00
2022-10-24T04:55:40.599Z,100.00
2022-10-24T05:00:45.753Z,100.00
2022-10-24T05:05:46.871Z,100.00
2022-10-24T05:10:47.703Z,100.00
2022-10-24T05:15:48.453Z,100.00
2022-10-24T05:20:49.269Z,100.00
2022-10-24T05:25:50.277Z,100.00
2022-10-24T05:30:51.181Z,100.00
2022-10-24T05:35:52.518Z,100.00
2022-10-24T05:40:53.452Z,100.00
2022-10-24T05:45:54.200Z,100.00
2022-10-24T05:50:56.940Z,100.00
2022-10-24T05:55:57.684Z,100.00
2022-10-24T06:00:58.834Z,100.00
2022-10-24T06:06:04.092Z,100.00
2022-10-24T06:11:09.482Z,100.00
2022-10-24T06:16:11.614Z,100.00
2022-10-24T06:21:13.010Z,100.00
2022-10-24T06:26:14.066Z,100.00
2022-10-24T06:31:15.215Z,100.00
2022-10-24T06:36:15.946Z,100.00
2022-10-24T06:41:17.195Z,100.00
2022-10-24T06:46:22.372Z,100.00
2022-10-24T06:51:24.708Z,100.00
2022-10-24T06:56:25.512Z,100.00
2022-10-24T07:01:27.167Z,100.00
2022-10-24T07:06:28.834Z,100.00
2022-10-24T07:11:29.864Z,100.00
2022-10-24T07:16:30.622Z,100.00
2022-10-24T07:21:32.423Z,100.00
2022-10-24T07:26:33.185Z,100.00
2022-10-24T07:31:35.621Z,100.00
2022-10-24T07:36:41.388Z,100.00
2022-10-24T07:41:44.830Z,100.00
2022-10-24T07:46:45.588Z,100.00
2022-10-24T07:51:46.354Z,100.00
2022-10-24T07:56:47.133Z,100.00
2022-10-24T08:01:48.185Z,100.00
2022-10-24T08:06:49.123Z,100.00
2022-10-24T08:11:49.912Z,100.00
2022-10-24T08:16:50.657Z,100.00
2022-10-24T08:21:52.071Z,100.00
2022-10-24T08:26:55.072Z,100.00
2022-10-24T08:31:55.929Z,100.00
2022-10-24T08:36:56.732Z,100.00
2022-10-24T08:42:02.087Z,100.00
2022-10-24T08:48:42.197Z,100.00
2022-10-24T08:53:44.170Z,100.00
2022-10-24T08:58:46.084Z,100.00
2022-10-24T09:03:56.511Z,100.00
2022-10-24T09:09:18.900Z,100.00
2022-10-24T09:14:30.994Z,100.00
2022-10-24T09:19:32.229Z,100.00
2022-10-24T09:24:45.306Z,100.00
2022-10-24T09:29:46.135Z,100.00
2022-10-24T09:34:48.541Z,100.00
2022-10-24T09:40:23.006Z,100.00
2022-10-24T09:45:46.028Z,100.00
2022-10-24T09:50:48.868Z,100.00
2022-10-24T09:55:54.305Z,96.02
2022-10-24T10:01:17.722Z,94.60
2022-10-24T10:06:20.276Z,95.89
2022-10-24T10:11:26.766Z,93.43
2022-10-24T10:16:34.659Z,90.54
2022-10-24T10:22:01.332Z,87.20
2022-10-24T10:27:58.758Z,84.54
2022-10-24T10:33:17.984Z,80.11
2022-10-24T10:38:48.844Z,82.09
2022-10-24T10:44:11.276Z,81.72
2022-10-24T10:49:41.513Z,80.54
2022-10-24T10:55:40.674Z,75.46
2022-10-24T11:04:31.285Z,77.08
2022-10-24T11:09:55.490Z,78.75
2022-10-24T11:15:29.950Z,80.36
2022-10-24T11:20:52.505Z,76.80
2022-10-24T11:26:10.284Z,75.14
2022-10-24T11:31:29.435Z,73.38
2022-10-24T11:36:55.743Z,69.96
2022-10-24T11:42:48.178Z,69.16
2022-10-24T11:48:12.538Z,65.84
2022-10-24T11:55:14.507Z,67.03
2022-10-24T12:00:20.401Z,64.74
2022-10-24T12:08:17.467Z,67.74
2022-10-24T12:14:53.561Z,58.37
2022-10-24T12:19:55.248Z,59.42
2022-10-24T12:25:28.643Z,58.18
2022-10-24T12:30:33.013Z,59.47
2022-10-24T12:35:48.062Z,58.55
2022-10-24T12:41:36.541Z,54.55
2022-10-24T12:47:00.905Z,56.57
2022-10-24T12:52:50.748Z,57.97
2022-10-24T12:57:51.518Z,55.69
2022-10-24T13:04:46.185Z,57.38
2022-10-24T13:10:13.363Z,61.12
2022-10-24T13:15:41.033Z,62.45
2022-10-24T13:20:44.554Z,64.19
2022-10-24T13:25:46.946Z,59.55
2022-10-24T13:32:39.621Z,59.06
2022-10-24T13:37:45.004Z,57.74
2022-10-24T13:42:53.832Z,60.23
2022-10-24T13:48:01.657Z,63.85
2022-10-24T13:53:30.590Z,64.37
2022-10-24T13:58:44.330Z,64.63
2022-10-24T14:03:47.099Z,67.38
2022-10-24T14:09:02.793Z,67.80
2022-10-24T14:14:18.191Z,69.56
2022-10-24T14:19:27.055Z,67.58
2022-10-24T14:24:31.368Z,68.10
2022-10-24T14:29:32.345Z,69.04
2022-10-24T14:34:36.514Z,68.49
2022-10-24T14:39:38.728Z,66.85
2022-10-24T14:44:43.231Z,66.61
2022-10-24T14:49:43.967Z,67.55
2022-10-24T14:54:59.564Z,69.00
2022-10-24T15:00:08.893Z,69.31
2022-10-24T15:06:13.119Z,70.99
2022-10-24T15:11:17.875Z,70.40
2022-10-24T15:16:26.773Z,72.93
2022-10-24T15:21:36.985Z,73.76
2022-10-24T15:26:41.986Z,75.37
2022-10-24T15:31:47.580Z,75.04
2022-10-24T15:36:50.888Z,75.73
2022-10-24T15:41:52.935Z,75.88
2022-10-24T15:46:54.529Z,77.17
2022-10-24T15:51:58.241Z,76.21
2022-10-24T15:57:02.822Z,79.49
2022-10-24T16:02:15.462Z,77.40
2022-10-24T16:07:16.637Z,78.12
2022-10-24T16:12:17.903Z,78.56
2022-10-24T16:17:18.641Z,80.45
2022-10-24T16:22:19.449Z,80.88
2022-10-24T16:27:20.375Z,82.08
2022-10-24T16:32:21.153Z,83.27
2022-10-24T16:37:21.942Z,82.88
2022-10-24T16:42:23.339Z,83.47
2022-10-24T16:47:24.615Z,83.97
2022-10-24T16:52:26.435Z,84.01
2022-10-24T16:57:27.418Z,85.14
2022-10-24T17:02:28.213Z,85.54
2022-10-24T17:07:28.977Z,85.52
2022-10-24T17:12:30.076Z,84.57
2022-10-24T17:17:33.074Z,85.58
2022-10-24T17:22:34.663Z,84.88
2022-10-24T17:27:39.793Z,85.77
2022-10-24T17:32:40.746Z,87.18
2022-10-24T17:37:55.442Z,86.63
2022-10-24T17:42:57.011Z,86.81
2022-10-24T17:47:57.914Z,87.54
2022-10-24T17:52:58.705Z,88.53
2022-10-24T17:57:59.773Z,88.88
2022-10-24T18:03:00.724Z,90.13
2022-10-24T18:08:01.487Z,91.30
2022-10-24T18:13:02.306Z,93.93
2022-10-24T18:18:04.886Z,95.31
2022-10-24T18:23:05.655Z,96.91
2022-10-24T18:28:06.512Z,97.60
2022-10-24T18:33:07.310Z,98.72
2022-10-24T18:38:08.086Z,99.91
2022-10-24T18:43:11.326Z,100.00
2022-10-24T18:48:14.323Z,100.00
2022-10-24T18:53:23.782Z,100.00
2022-10-24T18:58:24.901Z,100.00
2022-10-24T19:03:36.239Z,100.00
2022-10-24T19:08:37.150Z,100.00
2022-10-24T19:13:38.142Z,100.00
2022-10-24T19:18:53.402Z,100.00
2022-10-24T19:23:54.200Z,100.00
2022-10-24T19:28:55.061Z,100.00
2022-10-24T19:33:55.815Z,100.00
2022-10-24T19:38:56.842Z,100.00
2022-10-24T19:43:57.602Z,100.00
2022-10-24T19:48:58.510Z,100.00
2022-10-24T19:53:59.264Z,100.00
2022-10-24T19:59:00.199Z,100.00
2022-10-24T20:04:01.267Z,100.00
2022-10-24T20:09:02.377Z,100.00
2022-10-24T20:14:03.139Z,100.00
2022-10-24T20:19:06.415Z,100.00
2022-10-24T20:24:08.018Z,100.00
2022-10-24T20:29:09.078Z,100.00
2022-10-24T20:34:10.298Z,100.00
2022-10-24T20:39:11.577Z,100.00
2022-10-24T20:44:12.412Z,100.00
2022-10-24T20:49:13.150Z,100.00
2022-10-24T20:54:13.929Z,100.00
2022-10-24T20:59:15.141Z,100.00
2022-10-24T21:04:18.531Z,100.00
2022-10-24T21:09:21.821Z,100.00
2022-10-24T21:14:22.796Z,100.00
2022-10-24T21:19:24.065Z,100.00
2022-10-24T21:24:24.786Z,100.00
2022-10-24T21:29:33.298Z,100.00
2022-10-24T21:34:35.190Z,100.00
2022-10-24T21:39:36.061Z,100.00
2022-10-24T21:44:36.846Z,100.00
2022-10-24T21:49:37.599Z,100.00
2022-10-24T21:54:38.359Z,100.00
2022-10-24T21:59:39.261Z,100.00
2022-10-24T22:04:40.019Z,100.00
2022-10-24T22:09:41.009Z,100.00
2022-10-24T22:14:41.790Z,100.00
2022-10-24T22:19:42.566Z,100.00
2022-10-24T22:24:43.535Z,100.00
2022-10-24T22:29:44.358Z,100.00
2022-10-24T22:34:45.880Z,100.00
2022-10-24T22:39:47.056Z,100.00
2022-10-24T22:44:48.349Z,100.00
2022-10-24T22:52:27.366Z,100.00
2022-10-24T22:57:28.749Z,100.00
2022-10-24T23:02:35.612Z,100.00
2022-10-24T23:07:49.193Z,100.00
2022-10-24T23:12:51.468Z,100.00
2022-10-24T23:17:53.628Z,100.00
2022-10-24T23:23:08.919Z,100.00
2022-10-24T23:28:42.718Z,100.00
2022-10-24T23:33:43.989Z,100.00
2022-10-24T23:38:45.217Z,100.00
2022-10-24T23:43:46.402Z,100.00
2022-10-24T23:49:20.457Z,100.00
2022-10-24T23:54:25.403Z,100.00
